Time;durP1;ratioP1;P1;durP2;ratioP2;P2;SDS_P1;SDS_P2;PMS_P1;PMS_P2;Temp;Humidity;BMP_temperature;BMP_pressure;BME280_temperature;BME280_humidity;BME280_pressure;Samples;Min_cycle;Max_cycle;Signal;HPM_P1;HPM_P2
2023/06/29 00:02:24;;;;;;;2.62;1.50;;;;;;;16.22;60.07;99748.41;4377929;32;20560;-86
2023/06/29 00:04:52;;;;;;;2.12;1.60;;;;;;;16.25;60.08;99743.81;4378431;32;20154;-87
2023/06/29 00:07:17;;;;;;;2.70;1.77;;;;;;;16.21;60.08;99746.72;4377999;32;20137;-86
2023/06/29 00:09:43;;;;;;;9.52;2.22;;;;;;;16.10;60.07;99749.09;4378186;32;20138;-86
2023/06/29 00:12:09;;;;;;;2.42;1.50;;;;;;;16.12;60.07;99747.22;4365528;32;20098;-87
2023/06/29 00:14:34;;;;;;;3.95;2.17;;;;;;;16.24;60.08;99741.28;4377718;32;20107;-88
2023/06/29 00:16:59;;;;;;;3.20;1.87;;;;;;;16.11;60.07;99748.16;4365471;32;20107;-88
2023/06/29 00:19:25;;;;;;;5.00;2.00;;;;;;;16.19;60.08;99754.69;4390395;32;21547;-88
2023/06/29 00:21:50;;;;;;;2.97;2.00;;;;;;;16.48;60.09;99742.53;4365764;32;20130;-87
2023/06/29 00:24:16;;;;;;;2.78;2.10;;;;;;;16.24;60.08;99746.53;4365826;32;20154;-88
2023/06/29 00:26:41;;;;;;;3.45;1.90;;;;;;;16.28;60.08;99748.06;4365461;32;22330;-87
2023/06/29 00:29:07;;;;;;;5.45;2.60;;;;;;;16.41;60.09;99745.59;4365917;32;20162;-87
2023/06/29 00:31:32;;;;;;;2.20;2.00;;;;;;;16.25;60.08;99741.19;4366654;32;20128;-87
2023/06/29 00:33:57;;;;;;;3.90;2.08;;;;;;;16.14;60.07;99745.38;4367871;32;20106;-87
2023/06/29 00:36:23;;;;;;;7.37;2.45;;;;;;;16.10;60.07;99755.19;4374862;32;20130;-85
2023/06/29 00:38:48;;;;;;;2.62;1.58;;;;;;;15.96;60.06;99744.56;4368646;32;20106;-86
2023/06/29 00:41:14;;;;;;;6.55;2.40;;;;;;;16.04;60.06;99744.16;4365917;32;20863;-87
2023/06/29 00:43:42;;;;;;;4.70;2.00;;;;;;;16.05;60.07;99746.69;4377928;32;20103;-87
2023/06/29 00:46:08;;;;;;;2.92;1.95;;;;;;;16.07;60.06;99749.22;4365534;32;20110;-87
2023/06/29 00:48:36;;;;;;;3.33;2.03;;;;;;;16.01;60.07;99745.16;4364305;32;20389;-87
2023/06/29 00:51:03;;;;;;;4.68;1.70;;;;;;;16.01;60.07;99747.78;4377583;32;20093;-87
2023/06/29 00:53:29;;;;;;;6.20;2.10;;;;;;;16.04;60.06;99738.91;4365348;32;20124;-87
2023/06/29 00:55:54;;;;;;;3.97;2.33;;;;;;;16.01;60.07;99739.91;4365322;32;20103;-87
2023/06/29 00:58:20;;;;;;;4.00;2.10;;;;;;;16.01;60.07;99742.53;4365125;32;20122;-88
2023/06/29 01:00:45;;;;;;;5.35;2.40;;;;;;;16.02;60.07;99733.72;4364884;32;20115;-87
2023/06/29 01:03:11;;;;;;;2.45;1.85;;;;;;;15.92;60.05;99735.19;4389695;32;20103;-88
2023/06/29 01:05:36;;;;;;;5.43;2.03;;;;;;;15.89;60.06;99730.09;4352622;32;20173;-87
2023/06/29 01:08:10;;;;;;;5.78;2.03;;;;;;;15.88;60.06;99731.03;4376858;32;31792;-88
2023/06/29 01:10:36;;;;;;;5.53;2.00;;;;;;;15.71;60.05;99731.06;4377646;32;20380;-88
2023/06/29 01:13:01;;;;;;;2.83;2.00;;;;;;;15.60;60.04;99729.00;4364736;32;20098;-87
2023/06/29 01:15:27;;;;;;;3.85;2.12;;;;;;;15.72;60.05;99728.38;4365326;32;20459;-89
2023/06/29 01:17:54;;;;;;;2.70;1.65;;;;;;;15.69;60.04;99723.28;4351905;32;24862;-88
2023/06/29 01:20:19;;;;;;;5.70;2.20;;;;;;;15.60;60.04;99723.75;4365104;32;20220;-88
2023/06/29 01:23:06;;;;;;;3.03;2.08;;;;;;;15.67;60.04;99722.53;4377141;32;20176;-88
2023/06/29 01:25:32;;;;;;;3.87;1.75;;;;;;;15.79;60.05;99718.37;4390832;32;20103;-87
2023/06/29 01:27:58;;;;;;;6.20;2.50;;;;;;;15.88;60.06;99723.16;4376957;32;20172;-87
2023/06/29 01:30:24;;;;;;;3.30;2.35;;;;;;;16.08;60.06;99727.28;4364988;32;20474;-86
2023/06/29 01:32:49;;;;;;;4.07;2.65;;;;;;;16.03;60.06;99730.19;4389463;32;20249;-86
2023/06/29 01:35:15;;;;;;;5.68;2.37;;;;;;;16.09;60.08;99731.59;4389407;32;20118;-87
2023/06/29 01:37:44;;;;;;;3.22;2.45;;;;;;;16.17;60.07;99726.81;4376555;32;23543;-87
2023/06/29 01:40:10;;;;;;;4.10;2.25;;;;;;;16.33;60.08;99725.03;4364974;32;20106;-85
2023/06/29 01:42:35;;;;;;;7.05;3.03;;;;;;;16.41;60.09;99724.59;4364273;32;20102;-84
2023/06/29 01:45:03;;;;;;;3.90;2.30;;;;;;;16.37;60.08;99726.53;4364272;32;20458;-85
2023/06/29 01:47:28;;;;;;;8.88;2.47;;;;;;;16.01;60.07;99724.16;4364374;32;20082;-85
2023/06/29 01:49:54;;;;;;;4.60;2.75;;;;;;;16.16;60.07;99718.09;4364624;32;20112;-86
2023/06/29 01:52:19;;;;;;;4.10;2.62;;;;;;;15.96;60.06;99715.69;4364644;32;20133;-85
2023/06/29 01:54:44;;;;;;;7.12;2.78;;;;;;;15.83;60.05;99726.00;4377133;32;20470;-85
2023/06/29 01:57:10;;;;;;;5.78;2.47;;;;;;;15.73;60.05;99716.94;4390744;32;25357;-85
2023/06/29 01:59:35;;;;;;;4.95;3.05;;;;;;;16.19;60.07;99707.41;4378770;32;20118;-85
2023/06/29 02:02:01;;;;;;;4.95;3.33;;;;;;;15.83;60.05;99715.50;4372505;32;20111;-85
2023/06/29 02:04:26;;;;;;;6.07;3.17;;;;;;;15.99;60.06;99718.16;4368100;32;20506;-84
2023/06/29 02:06:51;;;;;;;7.18;3.10;;;;;;;16.31;60.07;99710.25;4362829;32;105940;-85
2023/06/29 02:09:17;;;;;;;7.93;2.90;;;;;;;15.93;60.06;99714.09;4366101;32;35144;-84
2023/06/29 02:11:42;;;;;;;8.75;2.85;;;;;;;16.09;60.07;99715.84;4366408;32;20173;-85
2023/06/29 02:14:08;;;;;;;6.72;3.30;;;;;;;15.86;60.06;99714.50;4379130;32;20150;-85
2023/06/29 02:16:33;;;;;;;5.57;3.00;;;;;;;16.16;60.07;99712.81;4366375;32;20120;-85
2023/06/29 02:18:59;;;;;;;5.12;2.58;;;;;;;15.96;60.05;99706.03;4366459;32;20125;-88
2023/06/29 02:21:24;;;;;;;4.90;3.12;;;;;;;15.96;60.06;99718.31;4366491;32;20399;-87
2023/06/29 02:23:49;;;;;;;5.70;2.72;;;;;;;15.94;60.06;99714.94;4366495;32;20486;-87
2023/06/29 02:26:15;;;;;;;5.37;2.90;;;;;;;16.13;60.07;99714.78;4366609;32;20134;-85
2023/06/29 02:28:40;;;;;;;7.20;2.40;;;;;;;16.39;60.08;99713.31;4365954;32;37942;-86
2023/06/29 02:31:06;;;;;;;3.75;2.47;;;;;;;16.33;60.08;99711.06;4353397;32;32033;-86
2023/06/29 02:33:31;;;;;;;7.75;2.83;;;;;;;16.60;60.09;99700.75;4354470;32;20173;-86
2023/06/29 02:35:56;;;;;;;6.40;2.67;;;;;;;16.39;60.08;99705.44;4379046;32;20148;-86
2023/06/29 02:38:22;;;;;;;4.68;2.35;;;;;;;16.57;60.09;99697.38;4366524;32;20160;-87
2023/06/29 02:40:47;;;;;;;5.43;2.28;;;;;;;16.56;60.09;99705.31;4366377;32;20173;-87
2023/06/29 02:43:15;;;;;;;3.15;2.30;;;;;;;16.68;60.09;99702.03;4366555;32;20177;-89
2023/06/29 02:45:40;;;;;;;4.20;2.10;;;;;;;16.50;60.08;99706.50;4354264;32;20102;-88
2023/06/29 02:48:05;;;;;;;3.12;2.35;;;;;;;16.58;60.09;99711.34;4379230;32;20149;-87
2023/06/29 02:50:31;;;;;;;3.92;2.12;;;;;;;16.44;60.08;99711.28;4378258;32;24324;-87
2023/06/29 02:52:56;;;;;;;5.47;2.20;;;;;;;16.63;60.10;99709.31;4366670;32;20098;-87
2023/06/29 02:55:22;;;;;;;5.45;2.20;;;;;;;16.54;60.08;99715.06;4353841;32;20117;-87
2023/06/29 02:57:47;;;;;;;4.35;2.50;;;;;;;16.47;60.09;99714.56;4366379;32;20432;-87
2023/06/29 03:00:13;;;;;;;6.35;2.92;;;;;;;16.75;60.10;99710.38;4365833;32;21931;-86
2023/06/29 03:02:38;;;;;;;5.28;2.30;;;;;;;16.81;60.11;99717.94;4378619;32;20435;-88
2023/06/29 03:05:04;;;;;;;2.65;1.75;;;;;;;16.77;60.11;99712.00;4365986;32;20102;-86
2023/06/29 03:07:30;;;;;;;8.23;2.25;;;;;;;16.68;60.09;99725.69;4378574;32;20101;-86
2023/06/29 03:09:55;;;;;;;4.00;1.65;;;;;;;16.88;60.11;99721.91;4392178;32;20098;-86
2023/06/29 03:12:21;;;;;;;3.47;2.15;;;;;;;16.79;60.10;99718.00;4364842;32;29012;-85
2023/06/29 03:14:47;;;;;;;3.58;1.80;;;;;;;16.93;60.11;99719.00;4366112;32;20113;-86
2023/06/29 03:17:14;;;;;;;3.95;2.05;;;;;;;16.90;60.10;99719.19;4366015;32;20094;-86
2023/06/29 03:19:39;;;;;;;6.40;2.20;;;;;;;17.03;60.11;99720.13;4354320;32;20110;-86
2023/06/29 03:22:04;;;;;;;3.70;2.10;;;;;;;17.13;60.12;99711.63;4366486;32;20153;-86
2023/06/29 03:24:30;;;;;;;2.50;1.85;;;;;;;17.19;60.12;99713.03;4355372;32;20146;-86
2023/06/29 03:26:55;;;;;;;4.90;1.67;;;;;;;16.99;60.11;99716.84;4371634;32;20153;-86
2023/06/29 03:29:21;;;;;;;4.37;2.10;;;;;;;16.99;60.11;99718.63;4371243;32;20124;-87
2023/06/29 03:31:46;;;;;;;5.87;1.73;;;;;;;17.11;60.12;99707.41;4350053;32;20114;-86
2023/06/29 03:34:11;;;;;;;2.65;1.92;;;;;;;17.24;60.12;99710.13;4355242;32;20152;-85
2023/06/29 03:36:37;;;;;;;5.22;1.95;;;;;;;17.18;60.12;99719.25;4362723;32;20500;-86
2023/06/29 03:39:03;;;;;;;10.27;2.00;;;;;;;17.40;60.14;99713.53;4387532;32;25628;-86
2023/06/29 03:41:29;;;;;;;2.53;1.60;;;;;;;17.59;60.14;99715.91;4375503;32;20168;-85
2023/06/29 03:43:55;;;;;;;5.90;1.90;;;;;;;17.76;60.15;99713.13;4363214;32;20098;-86
2023/06/29 03:46:20;;;;;;;2.22;1.62;;;;;;;17.75;60.15;99714.91;4363232;32;20450;-86
2023/06/29 03:48:46;;;;;;;3.22;1.50;;;;;;;17.64;60.15;99711.19;4350840;32;20203;-86
2023/06/29 03:51:11;;;;;;;3.47;1.50;;;;;;;17.78;60.16;99713.88;4363015;32;20695;-86
2023/06/29 03:53:37;;;;;;;2.75;1.23;;;;;;;18.05;60.17;99713.91;4388319;32;20098;-85
2023/06/29 03:56:02;;;;;;;2.90;1.60;;;;;;;17.97;60.16;99711.75;4378264;32;20094;-86
2023/06/29 03:58:27;;;;;;;6.25;1.67;;;;;;;17.99;60.16;99709.88;4378063;32;20153;-86
2023/06/29 04:00:53;;;;;;;4.50;1.58;;;;;;;18.19;60.17;99713.88;4365688;32;20152;-88
2023/06/29 04:03:18;;;;;;;2.40;1.58;;;;;;;18.15;60.17;99709.75;4352925;32;20151;-86
2023/06/29 04:05:44;;;;;;;5.60;1.52;;;;;;;18.04;60.17;99715.72;4365711;32;20103;-86
2023/06/29 04:08:09;;;;;;;3.05;1.45;;;;;;;18.08;60.17;99719.84;4378024;32;20134;-86
2023/06/29 04:10:35;;;;;;;3.50;1.35;;;;;;;18.30;60.18;99715.84;4377548;32;20106;-87
2023/06/29 04:13:00;;;;;;;2.83;1.33;;;;;;;18.24;60.18;99718.87;4365388;32;20116;-86
2023/06/29 04:15:26;;;;;;;2.28;1.50;;;;;;;18.22;60.17;99720.75;4365403;32;20133;-86
2023/06/29 04:17:51;;;;;;;3.35;1.50;;;;;;;18.19;60.18;99715.66;4365613;32;20140;-87
2023/06/29 04:20:17;;;;;;;2.47;1.70;;;;;;;18.26;60.18;99714.34;4365650;32;20126;-87
2023/06/29 04:22:42;;;;;;;5.22;1.80;;;;;;;18.41;60.19;99718.59;4352802;32;20090;-88
2023/06/29 04:25:08;;;;;;;2.72;1.45;;;;;;;18.38;60.18;99713.53;4365636;32;20110;-86
2023/06/29 04:27:34;;;;;;;2.92;1.67;;;;;;;18.44;60.19;99707.84;4378155;32;20176;-87
2023/06/29 04:30:00;;;;;;;2.20;1.42;;;;;;;18.42;60.19;99705.31;4377918;32;20176;-86
2023/06/29 04:32:26;;;;;;;4.03;1.77;;;;;;;18.62;60.20;99690.88;4365292;32;20129;-87
2023/06/29 04:34:51;;;;;;;3.97;1.50;;;;;;;18.34;60.18;99699.72;4365307;32;20488;-87
2023/06/29 04:37:16;;;;;;;2.40;1.42;;;;;;;18.47;60.19;99705.06;4353116;32;20178;-90
2023/06/29 04:39:42;;;;;;;4.72;2.00;;;;;;;18.62;60.20;99711.97;4353030;32;20103;-88
2023/06/29 04:42:12;;;;;;;3.28;1.60;;;;;;;18.79;60.21;99710.87;4366124;32;20489;-88
2023/06/29 04:44:40;;;;;;;2.25;1.45;;;;;;;18.96;60.22;99709.75;4391615;32;20165;-87
2023/06/29 04:47:06;;;;;;;3.17;1.45;;;;;;;18.99;60.21;99704.25;4391962;32;20117;-87
2023/06/29 04:49:32;;;;;;;3.37;1.60;;;;;;;18.91;60.21;99703.91;4365981;32;20103;-85
2023/06/29 04:52:00;;;;;;;5.65;1.50;;;;;;;19.05;60.22;99703.84;4367770;32;20154;-87
2023/06/29 04:54:29;;;;;;;4.72;1.58;;;;;;;19.20;60.23;99710.72;4374956;32;20113;-88
2023/06/29 04:56:54;;;;;;;4.25;1.87;;;;;;;19.23;60.24;99699.13;4376139;32;20178;-88
2023/06/29 04:59:24;;;;;;;4.25;1.70;;;;;;;19.13;60.23;99700.66;4374718;32;20151;-87
2023/06/29 05:01:50;;;;;;;;;;;;;;;19.20;60.23;99704.59;4365761;32;20095;-86
2023/06/29 05:04:15;;;;;;;3.85;1.55;;;;;;;19.25;60.23;99705.97;4389989;32;19996;-85
2023/06/29 05:06:41;;;;;;;5.82;1.70;;;;;;;19.36;60.24;99707.03;4364553;32;20142;-86
2023/06/29 05:09:06;;;;;;;4.50;1.60;;;;;;;19.27;60.23;99706.72;4364422;32;24315;-86
2023/06/29 05:11:32;;;;;;;3.10;1.95;;;;;;;19.27;60.24;99705.88;4389743;32;20162;-86
2023/06/29 05:13:58;;;;;;;3.58;1.85;;;;;;;19.06;60.22;99707.31;4352263;32;20166;-85
2023/06/29 05:16:23;;;;;;;4.28;1.65;;;;;;;19.06;60.22;99700.25;4377387;32;20122;-86
2023/06/29 05:18:49;;;;;;;6.70;1.67;;;;;;;19.12;60.23;99696.34;4363880;32;23734;-86
2023/06/29 05:21:14;;;;;;;3.40;1.75;;;;;;;19.26;60.24;99702.38;4377357;32;20114;-86
2023/06/29 05:23:40;;;;;;;7.65;2.25;;;;;;;19.22;60.23;99708.81;4354634;32;20164;-85
2023/06/29 05:26:05;;;;;;;6.28;2.05;;;;;;;19.36;60.24;99696.47;4354740;32;20121;-85
2023/06/29 05:28:31;;;;;;;5.87;1.67;;;;;;;19.29;60.23;99698.69;4385844;32;20109;-85
2023/06/29 05:30:57;;;;;;;4.10;1.85;;;;;;;19.42;60.24;99698.69;4365214;32;20463;-85
2023/06/29 05:33:22;;;;;;;4.50;1.60;;;;;;;19.36;60.24;99709.66;4364420;32;20140;-85
2023/06/29 05:35:48;;;;;;;5.90;2.33;;;;;;;19.33;60.24;99708.91;4365507;32;20164;-86
2023/06/29 05:38:13;;;;;;;6.57;2.75;;;;;;;19.31;60.24;99708.19;4353856;32;24990;-86
2023/06/29 05:40:38;;;;;;;3.30;1.77;;;;;;;19.48;60.25;99716.75;4370112;32;32958;-86
2023/06/29 05:43:04;;;;;;;3.33;1.98;;;;;;;19.68;60.25;99721.53;4355635;32;20146;-86
2023/06/29 05:45:29;;;;;;;3.25;1.75;;;;;;;19.79;60.27;99718.13;4367223;32;20106;-86
2023/06/29 05:47:55;;;;;;;2.90;1.65;;;;;;;20.00;60.28;99711.31;4379509;32;20149;-87
2023/06/29 05:50:21;;;;;;;6.07;1.67;;;;;;;20.09;60.28;99715.09;4379332;32;20083;-86
2023/06/29 05:52:46;;;;;;;4.32;1.75;;;;;;;19.99;60.27;99711.41;4366876;32;20122;-86
2023/06/29 05:55:11;;;;;;;5.15;1.80;;;;;;;19.95;60.27;99713.44;4366996;32;20448;-86
2023/06/29 05:57:38;;;;;;;2.55;1.50;;;;;;;19.93;60.26;99718.00;4366418;32;20141;-86
2023/06/29 06:00:09;;;;;;;6.05;2.22;;;;;;;20.20;60.28;99710.72;4392105;32;20117;-88
2023/06/29 06:02:36;;;;;;;4.28;1.73;;;;;;;20.26;60.29;99708.59;4355707;32;20098;-88
2023/06/29 06:05:01;;;;;;;4.40;2.00;;;;;;;20.12;60.28;99712.25;4354945;32;20106;-94
2023/06/29 06:07:28;;;;;;;3.28;2.00;;;;;;;20.28;60.29;99704.88;4347660;32;20139;-93
2023/06/29 06:09:53;;;;;;;6.50;2.28;;;;;;;20.31;60.29;99709.94;4355520;32;20164;-89
2023/06/29 06:12:19;;;;;;;3.50;1.70;;;;;;;20.43;60.30;99709.09;4352807;32;20114;-85
2023/06/29 06:14:44;;;;;;;2.97;1.75;;;;;;;20.56;60.31;99703.72;4385815;32;20385;-86
2023/06/29 06:17:09;;;;;;;3.45;1.80;;;;;;;20.51;60.30;99701.41;4393964;32;20114;-85
2023/06/29 06:19:35;;;;;;;9.45;2.17;;;;;;;20.74;60.31;99698.88;4375382;32;23845;-86
2023/06/29 06:22:00;;;;;;;5.62;1.80;;;;;;;21.03;60.33;99702.81;4352691;32;20467;-91
2023/06/29 06:24:26;;;;;;;4.87;2.17;;;;;;;21.06;60.33;99709.69;4364025;32;20393;-86
2023/06/29 06:26:51;;;;;;;5.28;2.17;;;;;;;21.14;60.33;99702.84;4365928;32;29870;-87
2023/06/29 06:29:16;;;;;;;4.32;1.92;;;;;;;21.28;60.34;99698.31;4376416;32;20689;-90
2023/06/29 06:31:42;;;;;;;3.25;1.80;;;;;;;21.52;60.35;99696.41;4342238;32;28415;-89
2023/06/29 06:34:07;;;;;;;4.18;1.60;;;;;;;21.60;60.36;99699.31;4377085;32;20524;-92
2023/06/29 06:36:33;;;;;;;4.57;1.50;;;;;;;21.69;60.36;99700.41;4366041;32;20102;-90
2023/06/29 06:38:58;;;;;;;2.15;1.25;;;;;;;21.68;60.36;99694.25;4366298;32;20090;-88
2023/06/29 06:41:24;;;;;;;6.45;2.55;;;;;;;21.86;60.38;99697.25;4366388;32;20395;-89
2023/06/29 06:43:49;;;;;;;10.45;2.33;;;;;;;21.99;60.37;99700.59;4366285;32;20114;-90
2023/06/29 06:46:14;;;;;;;5.65;2.03;;;;;;;22.11;60.39;99692.69;4377460;32;20122;-85
2023/06/29 06:48:40;;;;;;;4.55;1.70;;;;;;;22.30;60.39;99685.78;4392307;32;20105;-86
2023/06/29 06:51:05;;;;;;;5.95;1.92;;;;;;;22.49;60.41;99684.28;4366459;32;20146;-88
2023/06/29 06:53:31;;;;;;;2.92;1.65;;;;;;;22.73;60.42;99681.41;4365723;32;26245;-87
2023/06/29 06:55:56;;;;;;;2.78;1.58;;;;;;;22.94;60.42;99682.25;4391453;32;20200;-88
2023/06/29 06:58:22;;;;;;;6.75;2.33;;;;;;;23.15;60.44;99680.44;4378683;32;20110;-88
2023/06/29 07:00:48;;;;;;;3.28;1.65;;;;;;;23.23;60.44;99691.28;4366121;32;20086;-88
2023/06/29 07:03:13;;;;;;;3.45;1.52;;;;;;;23.23;60.45;99695.75;4365421;32;37028;-88
2023/06/29 07:05:38;;;;;;;2.58;1.50;;;;;;;23.31;60.45;99687.09;4387119;32;20133;-88
2023/06/29 07:08:06;;;;;;;3.08;1.80;;;;;;;23.26;60.44;99696.31;4395779;32;20129;-89
2023/06/29 07:10:32;;;;;;;3.47;1.90;;;;;;;23.30;60.45;99696.03;4358071;32;20113;-88
2023/06/29 07:12:57;;;;;;;4.03;1.52;;;;;;;23.40;60.45;99700.44;4370145;32;27817;-88
2023/06/29 07:15:22;;;;;;;4.32;1.73;;;;;;;23.59;60.46;99705.03;4369743;32;27385;-87
2023/06/29 07:17:48;;;;;;;6.82;2.17;;;;;;;23.50;60.46;99696.03;4368891;32;20078;-86
2023/06/29 07:20:14;;;;;;;4.78;1.80;;;;;;;23.38;60.46;99697.06;4393743;32;20114;-85
2023/06/29 07:22:39;;;;;;;3.58;1.90;;;;;;;23.50;60.46;99700.50;4393061;32;20194;-88
2023/06/29 07:25:07;;;;;;;4.15;1.60;;;;;;;23.52;60.46;99709.16;4378027;32;21164;-89
2023/06/29 07:27:32;;;;;;;4.62;1.80;;;;;;;23.55;60.46;99708.91;4366310;32;20094;-88
2023/06/29 07:29:57;;;;;;;3.30;1.80;;;;;;;23.55;60.46;99701.78;4378019;32;20396;-88
2023/06/29 07:32:23;;;;;;;5.18;1.55;;;;;;;23.75;60.48;99710.72;4392807;32;20154;-90
2023/06/29 07:34:48;;;;;;;4.00;1.73;;;;;;;23.68;60.47;99696.28;4378051;32;23015;-89
2023/06/29 07:37:14;;;;;;;3.40;1.50;;;;;;;23.93;60.48;99700.28;4366318;32;20174;-85
2023/06/29 07:39:39;;;;;;;2.50;1.75;;;;;;;24.06;60.49;99706.19;4391807;32;20135;-85
2023/06/29 07:42:05;;;;;;;3.12;1.92;;;;;;;24.19;60.49;99706.78;4393518;32;28952;-86
2023/06/29 07:44:30;;;;;;;4.68;1.75;;;;;;;24.13;60.50;99709.13;4396952;32;20090;-87
2023/06/29 07:46:55;;;;;;;3.95;2.00;;;;;;;24.06;60.49;99703.53;4373630;32;20137;-87
2023/06/29 07:49:21;;;;;;;2.10;1.30;;;;;;;24.05;60.49;99711.63;4356202;32;20154;-84
2023/06/29 07:51:47;;;;;;;2.83;1.52;;;;;;;24.11;60.49;99705.78;4366140;32;20174;-85
2023/06/29 07:54:13;;;;;;;3.58;2.12;;;;;;;24.26;60.50;99706.22;4365976;32;20117;-88
2023/06/29 07:56:38;;;;;;;3.47;1.87;;;;;;;24.48;60.51;99692.72;4365586;32;20166;-85
2023/06/29 07:59:03;;;;;;;6.78;2.00;;;;;;;24.73;60.52;99697.47;4352337;32;20146;-85
2023/06/29 08:01:29;;;;;;;6.68;1.70;;;;;;;24.67;60.52;99702.53;4390746;32;20842;-84
2023/06/29 08:03:54;;;;;;;4.87;1.55;;;;;;;24.61;60.52;99711.09;4378097;32;20165;-88
2023/06/29 08:06:20;;;;;;;3.17;1.90;;;;;;;24.66;60.52;99703.50;4377494;32;25601;-88
2023/06/29 08:08:45;;;;;;;7.97;1.70;;;;;;;24.77;60.53;99703.34;4377848;32;20121;-88
2023/06/29 08:11:14;;;;;;;6.47;1.92;;;;;;;24.59;60.52;99705.03;4365809;32;20114;-87
2023/06/29 08:13:40;;;;;;;3.53;1.90;;;;;;;24.46;60.51;99710.63;4353665;32;20110;-87
2023/06/29 08:16:05;;;;;;;4.20;1.37;;;;;;;24.52;60.51;99703.91;4365922;32;20436;-87
2023/06/29 08:18:31;;;;;;;2.95;1.42;;;;;;;24.78;60.53;99700.56;4391699;32;20106;-85
2023/06/29 08:20:56;;;;;;;3.60;1.60;;;;;;;24.77;60.53;99701.53;4386684;32;20138;-89
2023/06/29 08:23:22;;;;;;;4.60;1.60;;;;;;;24.78;60.53;99691.72;4367842;32;20115;-87
2023/06/29 08:25:48;;;;;;;1.73;1.50;;;;;;;24.75;60.53;99702.66;4365369;32;20484;-89
2023/06/29 08:28:13;;;;;;;2.97;1.70;;;;;;;24.89;60.53;99717.38;4365669;32;20125;-88
2023/06/29 08:30:39;;;;;;;2.80;1.73;;;;;;;24.89;60.53;99698.75;4347727;32;20130;-88
2023/06/29 08:33:04;;;;;;;2.80;1.70;;;;;;;24.93;60.54;99700.12;4365260;32;20110;-88
2023/06/29 08:35:30;;;;;;;4.50;1.58;;;;;;;25.01;60.54;99700.28;4352785;32;20520;-88
2023/06/29 08:37:55;;;;;;;3.42;1.70;;;;;;;25.23;60.56;99694.63;4377224;32;20116;-88
2023/06/29 08:40:21;;;;;;;3.85;1.58;;;;;;;25.40;60.57;99696.56;4366918;32;20162;-88
2023/06/29 08:42:46;;;;;;;4.62;2.30;;;;;;;25.63;60.58;99685.53;4367702;32;20106;-89
2023/06/29 08:45:12;;;;;;;2.80;1.50;;;;;;;25.86;60.59;99688.69;4367252;32;20179;-88
2023/06/29 08:47:37;;;;;;;3.17;1.73;;;;;;;25.89;60.58;99678.56;4391570;32;20091;-88
2023/06/29 08:50:04;;;;;;;3.58;1.55;;;;;;;26.00;60.59;99683.69;4367704;32;20509;-87
2023/06/29 08:52:31;;;;;;;3.83;1.92;;;;;;;26.29;60.60;99672.03;4370162;32;20121;-90
2023/06/29 08:54:56;;;;;;;4.72;1.77;;;;;;;26.22;60.60;99681.59;4368582;32;20110;-90
2023/06/29 08:57:22;;;;;;;2.03;1.20;;;;;;;26.50;60.62;99675.25;4364866;32;20161;-89
2023/06/29 08:59:50;;;;;;;2.28;1.35;;;;;;;26.54;60.62;99673.13;4372921;32;20128;-86
2023/06/29 09:02:16;;;;;;;3.08;1.55;;;;;;;26.24;60.60;99676.94;4360160;32;26139;-86
2023/06/29 09:04:44;;;;;;;3.65;1.58;;;;;;;26.38;60.61;99675.63;4391887;32;20425;-87
2023/06/29 09:07:09;;;;;;;2.17;1.35;;;;;;;26.68;60.62;99679.75;4368508;32;20507;-89
2023/06/29 09:09:35;;;;;;;2.05;1.40;;;;;;;26.86;60.63;99684.06;4366456;32;20098;-89
2023/06/29 09:12:00;;;;;;;6.12;1.40;;;;;;;26.92;60.63;99685.28;4385372;32;25110;-89
2023/06/29 09:14:28;;;;;;;3.30;1.40;;;;;;;26.89;60.64;99673.06;4396958;32;20133;-90
2023/06/29 09:16:57;;;;;;;1.62;1.30;;;;;;;26.78;60.62;99673.34;4366985;32;20148;-89
2023/06/29 09:19:24;;;;;;;1.40;1.30;;;;;;;26.84;60.64;99685.22;4355346;32;20489;-89
2023/06/29 09:21:49;;;;;;;3.90;1.42;;;;;;;26.92;60.64;99677.25;4391919;32;20136;-88
2023/06/29 09:24:16;;;;;;;1.77;1.37;;;;;;;27.03;60.65;99674.38;4367196;32;20094;-89
2023/06/29 09:26:41;;;;;;;3.72;1.50;;;;;;;27.03;60.65;99677.06;4354665;32;20098;-90
2023/06/29 09:29:07;;;;;;;4.30;1.58;;;;;;;26.96;60.65;99665.25;4355204;32;20133;-88
2023/06/29 09:31:33;;;;;;;2.72;1.50;;;;;;;27.21;60.66;99672.50;4391760;32;20155;-90
2023/06/29 09:34:20;;;;;;;3.67;1.52;;;;;;;27.49;60.66;99667.81;4366704;32;20113;-89
2023/06/29 09:36:46;;;;;;;2.35;1.62;;;;;;;27.43;60.67;99667.59;4366808;32;20908;-87
2023/06/29 09:39:12;;;;;;;4.65;1.48;;;;;;;27.59;60.68;99662.34;4379378;32;20094;-88
2023/06/29 09:41:45;;;;;;;2.33;1.50;;;;;;;27.73;60.68;99667.13;4379262;32;20164;-89
2023/06/29 09:44:11;;;;;;;2.55;1.52;;;;;;;27.67;60.68;99667.75;4357712;32;20149;-87
2023/06/29 09:46:40;;;;;;;2.22;1.40;;;;;;;27.57;60.67;99666.19;4363721;32;31021;-87
2023/06/29 09:49:08;;;;;;;6.43;1.50;;;;;;;27.70;60.68;99666.63;4374191;32;20140;-87
2023/06/29 09:51:33;;;;;;;3.60;1.60;;;;;;;27.63;60.68;99670.91;4366679;32;20179;-86
2023/06/29 09:54:01;;;;;;;3.65;1.55;;;;;;;27.96;60.69;99669.22;4378729;32;23581;-88
2023/06/29 09:56:27;;;;;;;2.15;1.80;;;;;;;27.89;60.68;99673.53;4354288;32;20136;-88
2023/06/29 09:58:53;;;;;;;5.57;1.45;;;;;;;28.06;60.70;99675.25;4354012;32;20504;-88
2023/06/29 10:01:18;;;;;;;3.62;1.48;;;;;;;28.00;60.70;99662.53;4366302;32;20467;-86
2023/06/29 10:03:44;;;;;;;2.00;1.50;;;;;;;28.08;60.70;99657.19;4378967;32;20239;-88
2023/06/29 10:06:13;;;;;;;3.85;1.40;;;;;;;28.14;60.70;99667.25;4349221;32;20110;-88
2023/06/29 10:08:41;;;;;;;3.70;1.83;;;;;;;28.03;60.70;99667.56;4366149;32;20153;-87
2023/06/29 10:11:07;;;;;;;2.15;1.35;;;;;;;28.16;60.71;99657.25;4391682;32;20094;-88
2023/06/29 10:13:37;;;;;;;2.97;1.50;;;;;;;28.39;60.71;99657.44;4365617;32;29916;-87
2023/06/29 10:16:02;;;;;;;3.42;1.35;;;;;;;28.44;60.71;99660.50;4365385;32;20144;-88
2023/06/29 10:18:32;;;;;;;2.03;1.52;;;;;;;28.49;60.72;99662.66;4360732;32;20106;-87
2023/06/29 10:20:57;;;;;;;4.55;1.65;;;;;;;28.60;60.72;99655.12;4378498;32;20577;-87
2023/06/29 10:23:23;;;;;;;2.35;1.20;;;;;;;28.75;60.74;99655.31;4378435;32;22041;-87
2023/06/29 10:25:48;;;;;;;1.33;1.20;;;;;;;28.71;60.74;99653.97;4378935;32;20127;-87
2023/06/29 10:28:14;;;;;;;1.27;1.17;;;;;;;28.82;60.73;99653.62;4378842;32;20114;-88
2023/06/29 10:30:47;;;;;;;4.57;1.92;;;;;;;28.68;60.74;99657.84;4378964;32;20098;-88
2023/06/29 10:33:12;;;;;;;1.52;1.40;;;;;;;28.75;60.73;99647.28;4379223;32;20167;-87
2023/06/29 10:35:38;;;;;;;1.92;1.27;;;;;;;28.66;60.73;99650.97;4397667;32;20107;-87
2023/06/29 10:38:11;;;;;;;3.40;1.30;;;;;;;28.63;60.73;99654.81;4391519;32;20109;-89
2023/06/29 10:40:48;;;;;;;2.42;1.52;;;;;;;28.78;60.74;99644.25;4387313;32;20120;-88
2023/06/29 10:43:14;;;;;;;2.53;1.70;;;;;;;28.98;60.74;99640.25;4404644;32;20113;-89
2023/06/29 10:45:40;;;;;;;2.53;1.48;;;;;;;29.29;60.76;99640.34;4366320;32;20124;-88
2023/06/29 10:48:07;;;;;;;3.42;1.30;;;;;;;29.50;60.78;99639.81;4391879;32;20106;-89
2023/06/29 10:50:35;;;;;;;1.98;1.40;;;;;;;29.50;60.78;99644.34;4378740;32;20655;-88
2023/06/29 10:53:01;;;;;;;3.10;1.50;;;;;;;29.51;60.78;99630.75;4392109;32;20253;-89
2023/06/29 10:55:31;;;;;;;3.08;1.75;;;;;;;29.63;60.77;99633.91;4403844;32;20144;-88
2023/06/29 10:57:58;;;;;;;1.92;1.50;;;;;;;29.41;60.77;99638.16;4366485;32;20126;-90
2023/06/29 11:00:25;;;;;;;2.17;1.33;;;;;;;29.58;60.78;99642.47;4391532;32;20179;-88
2023/06/29 11:02:50;;;;;;;4.03;1.42;;;;;;;29.19;60.76;99637.03;4392670;32;20094;-89
2023/06/29 11:05:16;;;;;;;3.83;1.60;;;;;;;28.97;60.75;99640.41;4374734;32;20154;-89
2023/06/29 11:07:43;;;;;;;3.53;1.62;;;;;;;29.17;60.76;99632.84;4376452;32;20227;-89
2023/06/29 11:10:09;;;;;;;3.33;1.50;;;;;;;29.31;60.77;99630.28;4342315;32;20193;-89
2023/06/29 11:12:38;;;;;;;2.15;1.42;;;;;;;29.59;60.78;99629.91;4385182;32;20181;-92
2023/06/29 11:15:09;;;;;;;2.28;1.50;;;;;;;29.06;60.75;99639.38;4388483;32;20452;-89
2023/06/29 11:17:34;;;;;;;2.08;1.30;;;;;;;28.91;60.74;99638.44;4384113;32;20455;-91
2023/06/29 11:20:00;;;;;;;2.28;1.40;;;;;;;28.60;60.73;99636.38;4365653;32;20169;-89
2023/06/29 11:22:27;;;;;;;2.17;1.70;;;;;;;28.74;60.74;99632.22;4378586;32;20153;-90
2023/06/29 11:24:52;;;;;;;5.12;1.48;;;;;;;29.06;60.75;99630.50;4366392;32;20126;-89
2023/06/29 11:27:18;;;;;;;4.97;1.62;;;;;;;28.87;60.75;99631.75;4391477;32;20122;-89
2023/06/29 11:29:43;;;;;;;4.78;1.33;;;;;;;29.01;60.76;99631.03;4391159;32;20164;-90